createdAt,value
2023-05-28T00:01:34.521Z,98093.44
2023-05-28T00:04:07.663Z,98095.13
2023-05-28T00:06:40.980Z,98092.63
2023-05-28T00:09:14.086Z,98086.31
2023-05-28T00:11:47.390Z,98090.47
2023-05-28T00:14:21.155Z,98087.03
2023-05-28T00:16:56.337Z,98076.88
2023-05-28T00:19:29.607Z,98079.91
2023-05-28T00:22:02.762Z,98077.75
2023-05-28T00:24:36.262Z,98076.84
2023-05-28T00:27:09.408Z,98072.47
2023-05-28T00:29:44.696Z,98071.09
2023-05-28T00:32:19.198Z,98068.69
2023-05-28T00:34:52.291Z,98064.84
2023-05-28T00:37:25.454Z,98059.41
2023-05-28T00:39:58.613Z,98059.72
2023-05-28T00:42:32.133Z,98065.25
2023-05-28T00:45:06.238Z,98059.09
2023-05-28T00:47:41.452Z,98058.22
2023-05-28T00:50:17.803Z,98056.53
2023-05-28T00:52:53.127Z,98056.25
2023-05-28T00:55:26.842Z,98059.00
2023-05-28T00:58:06.603Z,98055.44
2023-05-28T01:00:40.610Z,98056.31
2023-05-28T01:03:15.120Z,98055.28
2023-05-28T01:05:48.590Z,98054.97
2023-05-28T01:08:21.867Z,98048.00
2023-05-28T01:10:55.112Z,98050.56
2023-05-28T01:13:28.367Z,98040.13
2023-05-28T01:20:14.933Z,98047.50
2023-05-28T01:22:54.780Z,98043.16
2023-05-28T01:25:30.059Z,98048.28
2023-05-28T01:28:03.686Z,98048.75
2023-05-28T01:30:36.765Z,98048.66
2023-05-28T01:33:09.882Z,98048.19
2023-05-28T01:35:43.582Z,98045.13
2023-05-28T01:38:18.788Z,98046.38
2023-05-28T01:40:56.039Z,98042.84
2023-05-28T01:43:29.725Z,98039.84
2023-05-28T01:46:03.710Z,98038.78
2023-05-28T01:48:36.993Z,98045.16
2023-05-28T01:51:10.065Z,98049.22
2023-05-28T01:53:43.124Z,98047.63
2023-05-28T01:56:17.848Z,98044.38
2023-05-28T01:58:50.914Z,98041.75
2023-05-28T02:01:33.514Z,98042.53
2023-05-28T02:04:06.704Z,98044.66
2023-05-28T02:06:42.250Z,98050.38
2023-05-28T02:09:15.499Z,98052.78
2023-05-28T02:11:50.390Z,98049.06
2023-05-28T02:14:23.495Z,98048.00
2023-05-28T02:16:56.560Z,98037.06
2023-05-28T02:19:29.736Z,98038.06
2023-05-28T02:22:02.890Z,98042.34
2023-05-28T02:24:35.993Z,98040.97
2023-05-28T02:27:10.979Z,98042.53
2023-05-28T02:29:44.528Z,98037.25
2023-05-28T02:32:17.619Z,98037.06
2023-05-28T02:34:51.770Z,98030.63
2023-05-28T02:37:25.514Z,98037.59
2023-05-28T02:39:58.586Z,98041.31
2023-05-28T02:42:33.057Z,98041.03
2023-05-28T02:45:07.739Z,98029.13
2023-05-28T02:47:41.137Z,98032.47
2023-05-28T02:50:14.305Z,98040.06
2023-05-28T02:52:47.399Z,98039.53
2023-05-28T02:55:20.541Z,98034.22
2023-05-28T02:57:55.301Z,98047.13
2023-05-28T03:00:28.437Z,98043.03
2023-05-28T03:03:01.770Z,98040.38
2023-05-28T03:05:34.986Z,98044.50
2023-05-28T03:08:08.080Z,98041.25
2023-05-28T03:10:41.181Z,98039.06
2023-05-28T03:13:15.623Z,98040.03
2023-05-28T03:15:48.722Z,98043.22
2023-05-28T03:18:21.791Z,98046.19
2023-05-28T03:20:55.008Z,98044.63
2023-05-28T03:23:28.082Z,98040.91
2023-05-28T03:26:01.148Z,98045.66
2023-05-28T03:28:35.659Z,98039.47
2023-05-28T03:31:08.749Z,98042.13
2023-05-28T03:33:41.848Z,98051.94
2023-05-28T03:36:14.874Z,98039.91
2023-05-28T03:38:48.147Z,98042.88
2023-05-28T03:41:21.485Z,98041.78
2023-05-28T03:43:55.848Z,98044.78
2023-05-28T03:46:28.990Z,98050.66
2023-05-28T03:49:02.150Z,98050.94
2023-05-28T03:51:35.371Z,98051.06
2023-05-28T03:54:08.474Z,98049.19
2023-05-28T03:56:41.721Z,98040.72
2023-05-28T03:59:16.160Z,98044.84
2023-05-28T04:01:49.247Z,98045.31
2023-05-28T04:04:22.581Z,98049.03
2023-05-28T04:06:55.795Z,98051.47
2023-05-28T04:09:29.089Z,98049.22
2023-05-28T04:12:03.972Z,98048.69
2023-05-28T04:14:38.363Z,98049.69
2023-05-28T04:17:13.856Z,98048.00
2023-05-28T04:19:46.946Z,98050.97
2023-05-28T04:22:19.974Z,98048.69
2023-05-28T04:24:56.658Z,98049.06
2023-05-28T04:27:29.775Z,98047.81
2023-05-28T04:30:04.485Z,98041.53
2023-05-28T04:32:40.271Z,98049.22
2023-05-28T04:35:13.713Z,98040.22
2023-05-28T04:37:46.905Z,98043.47
2023-05-28T04:40:19.983Z,98043.94
2023-05-28T04:42:54.896Z,98047.31
2023-05-28T04:45:29.348Z,98044.28
2023-05-28T04:48:03.232Z,98052.16
2023-05-28T04:50:37.604Z,98055.41
2023-05-28T04:53:10.639Z,98047.06
2023-05-28T04:55:43.830Z,98051.47
2023-05-28T04:58:16.942Z,98050.09
2023-05-28T05:00:52.226Z,98053.16
2023-05-28T05:03:25.451Z,98055.19
2023-05-28T05:05:58.640Z,98052.41
2023-05-28T05:08:31.943Z,98043.63
2023-05-28T05:11:07.551Z,98042.28
2023-05-28T05:13:40.905Z,98047.34
2023-05-28T05:16:15.430Z,98047.38
2023-05-28T05:18:48.688Z,98044.94
2023-05-28T05:21:22.342Z,98041.91
2023-05-28T05:23:55.533Z,98039.19
2023-05-28T05:26:28.643Z,98040.25
2023-05-28T05:29:01.792Z,98039.97
2023-05-28T05:31:36.413Z,98038.00
2023-05-28T05:34:09.580Z,98033.19
2023-05-28T05:36:42.714Z,98039.19
2023-05-28T05:39:16.109Z,98036.59
2023-05-28T05:41:49.223Z,98039.44
2023-05-28T05:44:22.944Z,98039.28
2023-05-28T05:46:57.612Z,98045.13
2023-05-28T05:49:30.761Z,98042.34
2023-05-28T05:52:03.868Z,98043.28
2023-05-28T05:54:36.992Z,98045.69
2023-05-28T05:57:11.056Z,98039.91
2023-05-28T05:59:44.350Z,98032.22
2023-05-28T06:02:19.097Z,98033.25
2023-05-28T06:04:52.964Z,98035.69
2023-05-28T06:07:26.199Z,98032.00
2023-05-28T06:09:59.423Z,98029.88
2023-05-28T06:12:32.552Z,98030.28
2023-05-28T06:15:07.671Z,98034.53
2023-05-28T06:17:42.532Z,98033.47
2023-05-28T06:20:16.247Z,98032.94
2023-05-28T06:22:49.467Z,98038.72
2023-05-28T06:25:23.467Z,98029.59
2023-05-28T06:27:56.912Z,98040.41
2023-05-28T06:30:30.543Z,98029.94
2023-05-28T06:33:05.192Z,98031.13
2023-05-28T06:35:38.545Z,98022.88
2023-05-28T06:38:11.749Z,98029.16
2023-05-28T06:44:29.606Z,98028.03
2023-05-28T06:47:02.856Z,98027.34
2023-05-28T06:49:37.539Z,98028.31
2023-05-28T06:52:10.754Z,98020.34
2023-05-28T06:54:43.941Z,98028.97
2023-05-28T06:57:17.064Z,98030.09
2023-05-28T06:59:50.212Z,98024.91
2023-05-28T07:02:23.291Z,98023.16
2023-05-28T07:04:57.913Z,98027.59
2023-05-28T07:07:31.368Z,98029.38
2023-05-28T07:10:05.183Z,98031.13
2023-05-28T07:12:38.397Z,98032.00
2023-05-28T07:15:12.554Z,98034.59
2023-05-28T07:17:59.828Z,98034.53
2023-05-28T07:20:34.449Z,98034.50
2023-05-28T07:23:07.724Z,98026.44
2023-05-28T07:25:42.696Z,98032.66
2023-05-28T07:28:15.951Z,98033.59
2023-05-28T07:30:49.140Z,98032.84
2023-05-28T07:33:22.341Z,98031.06
2023-05-28T07:35:57.364Z,98036.22
2023-05-28T07:38:30.521Z,98035.22
2023-05-28T07:41:03.671Z,98026.31
2023-05-28T07:43:36.883Z,98034.00
2023-05-28T07:46:10.099Z,98035.47
2023-05-28T07:48:44.603Z,98038.09
2023-05-28T07:51:19.647Z,98036.19
2023-05-28T07:53:53.038Z,98035.78
2023-05-28T07:56:27.318Z,98034.47
2023-05-28T07:59:00.487Z,98032.22
2023-05-28T08:01:35.412Z,98028.47
2023-05-28T08:04:08.751Z,98036.03
2023-05-28T08:06:43.472Z,98028.63
2023-05-28T08:09:18.647Z,98032.00
2023-05-28T08:11:52.141Z,98024.66
2023-05-28T08:14:25.493Z,98023.47
2023-05-28T08:16:58.771Z,98019.19
2023-05-28T08:19:32.048Z,98015.31
2023-05-28T08:22:07.702Z,98014.81
2023-05-28T08:24:41.204Z,98020.09
2023-05-28T08:27:14.449Z,98015.75
2023-05-28T08:29:48.125Z,98012.41
2023-05-28T08:32:21.643Z,98016.63
2023-05-28T08:34:54.978Z,98015.75
2023-05-28T08:37:29.530Z,98023.16
2023-05-28T08:40:02.736Z,98011.78
2023-05-28T08:42:36.098Z,98007.38
2023-05-28T08:45:10.378Z,98012.63
2023-05-28T08:47:44.786Z,98005.59
2023-05-28T08:50:18.339Z,98001.16
2023-05-28T08:52:53.860Z,97991.38
2023-05-28T08:55:27.054Z,97993.16
2023-05-28T08:58:00.523Z,97985.19
2023-05-28T09:00:33.931Z,97984.31
2023-05-28T09:03:09.238Z,97980.63
2023-05-28T09:05:42.719Z,97976.19
2023-05-28T09:08:17.444Z,97978.09
2023-05-28T09:10:50.640Z,97975.72
2023-05-28T09:13:23.980Z,97974.19
2023-05-28T09:15:58.659Z,97957.41
2023-05-28T09:18:32.196Z,97969.56
2023-05-28T09:21:11.875Z,97961.66
2023-05-28T09:23:52.333Z,97961.94
2023-05-28T09:26:28.685Z,97961.22
2023-05-28T09:29:02.400Z,97952.50
2023-05-28T09:31:35.618Z,97956.94
2023-05-28T09:34:08.918Z,97957.75
2023-05-28T09:36:42.855Z,97954.28
2023-05-28T09:39:17.369Z,97955.94
2023-05-28T09:42:01.517Z,97957.75
2023-05-28T09:44:35.624Z,97964.72
2023-05-28T09:47:16.012Z,97956.91
2023-05-28T09:49:50.962Z,97969.16
2023-05-28T09:52:25.220Z,97963.91
2023-05-28T09:55:01.140Z,97957.75
2023-05-28T09:57:36.112Z,97972.56
2023-05-28T10:00:21.015Z,97958.56
2023-05-28T10:03:12.610Z,97949.06
2023-05-28T10:05:51.312Z,97946.47
2023-05-28T10:08:27.005Z,97959.50
2023-05-28T10:11:01.620Z,97946.47
2023-05-28T10:13:34.931Z,97949.06
2023-05-28T10:16:08.796Z,97951.66
2023-05-28T10:18:44.229Z,97954.34
2023-05-28T10:21:17.999Z,97954.31
2023-05-28T10:23:51.584Z,97949.97
2023-05-28T10:26:27.208Z,97947.28
2023-05-28T10:29:01.177Z,97953.28
2023-05-28T10:31:34.406Z,97938.56
2023-05-28T10:34:18.001Z,97951.69
2023-05-28T10:37:03.344Z,97942.94
2023-05-28T10:39:41.589Z,97952.50
2023-05-28T10:42:19.739Z,97949.03
2023-05-28T10:45:07.727Z,97956.03
2023-05-28T10:47:44.187Z,97950.84
2023-05-28T10:50:20.163Z,97947.34
2023-05-28T10:53:08.039Z,97950.78
2023-05-28T10:55:52.824Z,97957.81
2023-05-28T10:58:29.309Z,97944.69
2023-05-28T11:01:06.463Z,97940.31
2023-05-28T11:03:45.101Z,97946.47
2023-05-28T11:06:19.303Z,97932.50
2023-05-28T11:08:52.535Z,97935.13
2023-05-28T11:11:28.279Z,97946.44
2023-05-28T11:14:04.070Z,97935.97
2023-05-28T11:16:37.341Z,97935.09
2023-05-28T11:19:11.597Z,97922.84
2023-05-28T11:21:54.761Z,97924.63
2023-05-28T11:24:27.973Z,97913.28
2023-05-28T11:27:01.200Z,97913.28
2023-05-28T11:29:35.717Z,97917.66
2023-05-28T11:32:09.290Z,97927.25
2023-05-28T11:34:42.574Z,97924.66
2023-05-28T11:37:15.851Z,97923.81
2023-05-28T11:39:52.676Z,97925.53
2023-05-28T11:42:27.420Z,97915.00
2023-05-28T11:45:01.939Z,97920.28
2023-05-28T11:47:36.820Z,97918.56
2023-05-28T11:50:12.204Z,97922.03
2023-05-28T11:52:46.164Z,97923.78
2023-05-28T11:55:20.149Z,97920.28
2023-05-28T11:57:56.450Z,97918.50
2023-05-28T12:00:36.627Z,97913.31
2023-05-28T12:03:13.083Z,97915.03
2023-05-28T12:05:46.728Z,97915.06
2023-05-28T12:08:21.672Z,97918.50
2023-05-28T12:10:55.126Z,97913.28
2023-05-28T12:13:34.375Z,97908.91
2023-05-28T12:16:10.499Z,97896.72
2023-05-28T12:18:44.159Z,97904.56
2023-05-28T12:21:21.467Z,97901.09
2023-05-28T12:23:56.238Z,97894.97
2023-05-28T12:26:30.305Z,97900.22
2023-05-28T12:29:03.541Z,97899.34
2023-05-28T12:31:38.218Z,97900.19
2023-05-28T12:34:11.381Z,97908.97
2023-05-28T12:36:44.710Z,97899.34
2023-05-28T12:39:17.857Z,97898.47
2023-05-28T12:41:51.024Z,97888.88
2023-05-28T12:44:24.179Z,97886.25
2023-05-28T12:46:58.808Z,97881.03
2023-05-28T12:49:32.006Z,97888.00
2023-05-28T12:52:05.663Z,97887.16
2023-05-28T12:54:38.825Z,97891.50
2023-05-28T12:57:12.980Z,97875.81
2023-05-28T12:59:46.348Z,97876.72
2023-05-28T13:02:21.290Z,97873.22
2023-05-28T13:04:54.780Z,97875.81
2023-05-28T13:07:28.526Z,97873.19
2023-05-28T13:10:01.738Z,97869.69
2023-05-28T13:12:37.840Z,97867.94
2023-05-28T13:15:12.436Z,97867.06
2023-05-28T13:17:47.389Z,97858.34
2023-05-28T13:20:20.928Z,97860.13
2023-05-28T13:22:54.148Z,97863.59
2023-05-28T13:25:27.339Z,97861.84
2023-05-28T13:28:02.898Z,97858.38
2023-05-28T13:30:36.373Z,97857.50
2023-05-28T13:33:11.003Z,97851.38
2023-05-28T13:35:44.207Z,97855.78
2023-05-28T13:38:18.022Z,97845.28
2023-05-28T13:40:51.218Z,97849.63
2023-05-28T13:43:24.502Z,97847.84
2023-05-28T13:45:57.715Z,97843.53
2023-05-28T13:48:32.449Z,97847.91
2023-05-28T13:51:06.857Z,97832.16
2023-05-28T13:53:40.388Z,97840.91
2023-05-28T13:56:13.698Z,97830.44
2023-05-28T13:58:46.880Z,97830.44
2023-05-28T14:01:20.195Z,97817.34
2023-05-28T14:03:54.991Z,97824.28
2023-05-28T14:06:28.454Z,97822.56
2023-05-28T14:09:01.674Z,97813.88
2023-05-28T14:12:03.941Z,97812.13
2023-05-28T14:14:28.124Z,97807.75
2023-05-28T14:17:01.598Z,97811.28
2023-05-28T14:19:36.348Z,97806.94
2023-05-28T14:22:09.666Z,97804.31
2023-05-28T14:24:42.840Z,97798.22
2023-05-28T14:27:16.154Z,97797.31
2023-05-28T14:29:49.325Z,97794.69
2023-05-28T14:32:22.716Z,97807.78
2023-05-28T14:34:57.486Z,97800.81
2023-05-28T14:37:30.788Z,97802.56
2023-05-28T14:40:05.637Z,97797.28
2023-05-28T14:42:38.833Z,97799.94
2023-05-28T14:45:12.468Z,97793.81
2023-05-28T14:47:45.695Z,97786.84
2023-05-28T14:50:21.033Z,97792.88
2023-05-28T14:52:54.257Z,97794.59
2023-05-28T14:55:27.598Z,97790.31
2023-05-28T14:58:00.741Z,97789.44
2023-05-28T15:00:33.925Z,97781.56
2023-05-28T15:03:07.144Z,97789.47
2023-05-28T15:05:41.745Z,97784.25
2023-05-28T15:08:15.609Z,97778.13
2023-05-28T15:10:48.893Z,97787.72
2023-05-28T15:13:22.143Z,97791.22
2023-05-28T15:15:55.617Z,97778.19
2023-05-28T15:18:29.011Z,97773.75
2023-05-28T15:21:03.684Z,97781.63
2023-05-28T15:23:37.220Z,97781.63
2023-05-28T15:26:10.849Z,97778.13
2023-05-28T15:28:44.971Z,97776.41
2023-05-28T15:31:21.493Z,97765.03
2023-05-28T15:33:55.037Z,97776.44
2023-05-28T15:36:31.901Z,97776.41
2023-05-28T15:39:05.695Z,97776.41
2023-05-28T15:41:39.355Z,97778.13
2023-05-28T15:44:13.144Z,97755.50
2023-05-28T15:46:46.663Z,97774.69
2023-05-28T15:49:19.881Z,97772.06
2023-05-28T15:51:54.583Z,97767.72
2023-05-28T15:54:28.220Z,97765.09
2023-05-28T15:57:01.918Z,97772.94
2023-05-28T15:59:35.272Z,97768.56
2023-05-28T16:02:09.776Z,97770.34
2023-05-28T16:04:43.202Z,97763.38
2023-05-28T16:07:18.239Z,97759.84
2023-05-28T16:09:51.665Z,97765.09
2023-05-28T16:12:26.541Z,97765.09
2023-05-28T16:15:03.792Z,97759.88
2023-05-28T16:17:40.243Z,97758.13
2023-05-28T16:20:14.300Z,97762.50
2023-05-28T16:22:49.574Z,97765.97
2023-05-28T16:25:24.312Z,97752.91
2023-05-28T16:27:57.738Z,97756.38
2023-05-28T16:30:31.589Z,97761.63
2023-05-28T16:33:05.610Z,97759.00
2023-05-28T16:35:40.097Z,97756.34
2023-05-28T16:38:15.227Z,97756.38
2023-05-28T16:40:49.091Z,97766.00
2023-05-28T16:43:23.179Z,97759.00
2023-05-28T16:45:59.657Z,97763.31
2023-05-28T16:48:34.350Z,97759.84
2023-05-28T16:51:10.468Z,97755.47
2023-05-28T16:53:45.199Z,97760.72
2023-05-28T16:56:18.673Z,97758.97
2023-05-28T16:58:51.978Z,97758.13
2023-05-28T17:01:25.646Z,97765.94
2023-05-28T17:03:58.948Z,97760.72
2023-05-28T17:06:32.232Z,97760.66
2023-05-28T17:09:09.806Z,97759.81
2023-05-28T17:11:42.979Z,97764.16
2023-05-28T17:14:16.810Z,97763.25
2023-05-28T17:16:50.100Z,97765.88
2023-05-28T17:19:23.687Z,97767.66
2023-05-28T17:21:57.168Z,97774.59
2023-05-28T17:24:31.748Z,97765.00
2023-05-28T17:27:06.182Z,97773.66
2023-05-28T17:29:39.326Z,97765.84
2023-05-28T17:32:12.663Z,97769.31
2023-05-28T17:34:45.990Z,97770.97
2023-05-28T17:37:19.371Z,97769.19
2023-05-28T17:39:54.404Z,97770.91
2023-05-28T17:42:28.817Z,97777.84
2023-05-28T17:45:02.453Z,97769.16
2023-05-28T17:47:35.732Z,97779.59
2023-05-28T17:50:10.983Z,97782.19
2023-05-28T17:52:44.344Z,97783.06
2023-05-28T17:55:19.128Z,97775.19
2023-05-28T17:57:52.397Z,97776.91
2023-05-28T18:00:25.606Z,97785.56
2023-05-28T18:02:59.471Z,97782.06
2023-05-28T18:05:33.257Z,97778.56
2023-05-28T18:08:06.629Z,97783.72
2023-05-28T18:10:41.785Z,97791.47
2023-05-28T18:13:15.084Z,97789.69
2023-05-28T18:15:49.378Z,97794.00
2023-05-28T18:18:22.592Z,97792.22
2023-05-28T18:20:56.147Z,97797.41
2023-05-28T18:23:31.094Z,97797.47
2023-05-28T18:26:06.337Z,97789.56
2023-05-28T18:28:39.605Z,97789.38
2023-05-28T18:31:12.950Z,97787.63
2023-05-28T18:33:46.208Z,97786.69
2023-05-28T18:36:19.392Z,97788.34
2023-05-28T18:38:52.950Z,97796.09
2023-05-28T18:41:27.555Z,97789.88
2023-05-28T18:44:01.731Z,97803.66
2023-05-28T18:46:35.238Z,97799.22
2023-05-28T18:49:08.446Z,97798.28
2023-05-28T18:51:41.637Z,97805.97
2023-05-28T18:54:15.629Z,97811.03
2023-05-28T18:56:50.317Z,97814.34
2023-05-28T18:59:23.564Z,97812.41
2023-05-28T19:01:57.060Z,97813.94
2023-05-28T19:04:30.273Z,97817.22
2023-05-28T19:07:04.214Z,97812.72
2023-05-28T19:09:37.461Z,97818.63
2023-05-28T19:12:11.969Z,97825.31
2023-05-28T19:14:45.092Z,97824.22
2023-05-28T19:17:18.293Z,97819.78
2023-05-28T19:19:51.511Z,97823.94
2023-05-28T19:22:24.768Z,97822.84
2023-05-28T19:24:59.781Z,97824.34
2023-05-28T19:27:34.313Z,97829.34
2023-05-28T19:30:09.637Z,97834.34
2023-05-28T19:32:42.829Z,97844.44
2023-05-28T19:35:16.457Z,97843.28
2023-05-28T19:37:51.564Z,97845.44
2023-05-28T19:40:24.709Z,97859.03
2023-05-28T19:42:59.262Z,97855.50
2023-05-28T19:45:33.301Z,97865.63
2023-05-28T19:48:06.712Z,97867.22
2023-05-28T19:50:40.160Z,97868.81
2023-05-28T19:53:13.565Z,97868.59
2023-05-28T19:55:46.727Z,97870.22
2023-05-28T19:58:22.390Z,97874.44
2023-05-28T20:00:56.055Z,97869.81
2023-05-28T20:03:29.346Z,97873.03
2023-05-28T20:06:02.572Z,97873.72
2023-05-28T20:08:35.862Z,97877.81
2023-05-28T20:11:09.326Z,97883.63
2023-05-28T20:13:44.074Z,97877.34
2023-05-28T20:16:18.681Z,97885.56
2023-05-28T20:18:55.881Z,97882.88
2023-05-28T20:21:32.264Z,97883.34
2023-05-28T20:24:06.061Z,97887.19
2023-05-28T20:26:39.506Z,97888.81
2023-05-28T20:29:15.287Z,97887.63
2023-05-28T20:31:48.617Z,97895.91
2023-05-28T20:34:21.884Z,97900.81
2023-05-28T20:36:55.746Z,97901.41
2023-05-28T20:39:30.026Z,97902.00
2023-05-28T20:42:04.200Z,97900.13
2023-05-28T20:44:38.803Z,97898.13
2023-05-28T20:47:12.559Z,97899.69
2023-05-28T20:49:45.854Z,97906.31
2023-05-28T20:52:19.132Z,97907.88
2023-05-28T20:54:52.496Z,97906.94
2023-05-28T20:57:44.746Z,97905.72
2023-05-28T21:00:22.590Z,97902.09
2023-05-28T21:02:59.015Z,97900.28
2023-05-28T21:05:32.441Z,97900.06
2023-05-28T21:08:05.964Z,97898.06
2023-05-28T21:10:40.645Z,97900.53
2023-05-28T21:13:14.472Z,97897.75
2023-05-28T21:15:49.240Z,97905.22
2023-05-28T21:18:22.460Z,97906.91
2023-05-28T21:20:57.356Z,97920.50
2023-05-28T21:23:31.236Z,97915.81
2023-05-28T21:26:04.435Z,97916.38
2023-05-28T21:28:37.711Z,97919.53
2023-05-28T21:31:12.372Z,97921.03
2023-05-28T21:33:45.618Z,97916.53
2023-05-28T21:36:18.845Z,97921.53
2023-05-28T21:38:52.040Z,97917.59
2023-05-28T21:41:25.194Z,97913.06
2023-05-28T21:43:58.399Z,97922.25
2023-05-28T21:46:33.038Z,97915.06
2023-05-28T21:49:06.331Z,97911.50
2023-05-28T21:51:39.894Z,97913.47
2023-05-28T21:54:13.069Z,97916.75
2023-05-28T21:56:46.257Z,97914.91
2023-05-28T21:59:20.664Z,97916.94
2023-05-28T22:01:55.231Z,97920.34
2023-05-28T22:04:28.451Z,97920.94
2023-05-28T22:07:01.700Z,97920.34
2023-05-28T22:09:34.924Z,97918.34
2023-05-28T22:12:09.052Z,97919.28
2023-05-28T22:14:42.241Z,97924.91
2023-05-28T22:17:19.210Z,97928.09
2023-05-28T22:19:52.644Z,97931.53
2023-05-28T22:22:25.905Z,97922.00
2023-05-28T22:24:59.106Z,97923.97
2023-05-28T22:27:32.325Z,97918.97
2023-05-28T22:30:07.042Z,97925.47
2023-05-28T22:32:41.628Z,97925.13
2023-05-28T22:35:14.819Z,97921.78
2023-05-28T22:37:49.127Z,97918.50
2023-05-28T22:40:22.472Z,97923.53
2023-05-28T22:42:55.607Z,97926.38
2023-05-28T22:45:28.786Z,97919.25
2023-05-28T22:48:05.850Z,97921.59
2023-05-28T22:50:39.095Z,97924.38
2023-05-28T22:53:12.561Z,97920.81
2023-05-28T22:55:46.129Z,97918.69
2023-05-28T22:58:19.257Z,97918.53
2023-05-28T23:00:52.406Z,97922.81
2023-05-28T23:03:27.550Z,97917.22
2023-05-28T23:06:00.784Z,97921.94
2023-05-28T23:08:33.874Z,97927.78
2023-05-28T23:11:07.878Z,97920.72
2023-05-28T23:13:41.006Z,97923.03
2023-05-28T23:16:14.602Z,97927.78
2023-05-28T23:18:51.073Z,97925.09
2023-05-28T23:21:24.695Z,97924.34
2023-05-28T23:23:58.202Z,97928.53
2023-05-28T23:26:31.375Z,97937.97
2023-05-28T23:29:05.196Z,97938.34
2023-05-28T23:31:38.412Z,97935.53
2023-05-28T23:34:13.677Z,97937.19
2023-05-28T23:36:48.982Z,97941.44
2023-05-28T23:39:23.801Z,97944.00
2023-05-28T23:41:57.583Z,97939.53
2023-05-28T23:44:31.219Z,97940.75
2023-05-28T23:47:04.751Z,97936.50
2023-05-28T23:49:39.285Z,97934.75
2023-05-28T23:52:12.400Z,97940.50
2023-05-28T23:54:45.570Z,97936.19
2023-05-28T23:57:18.846Z,97947.78
2023-05-28T23:59:51.967Z,97945.09
